Terminal Aerodrome Forecast
Issued by NWS

Home | Current Version | Previous Version | Text Only | Print | Product List | Glossary On
Versions: 1 2 3 4 5 6 7 8 9 10 11 12
000
FTAK31 PAFA 031722
TAFAOT
TAF
PAOT 031722Z 0318/0418 24005KT P6SM SCT070 SCT120
     FM040000 27006KT P6SM VCSH SCT025 BKN035 OVC050
     FM040600 30006KT P6SM VCFG SCT007 BKN015 OVC025=

USA.gov is the U.S. government's official web portal to all federal, state and local government web resources and services.